KCNM/CNM METAR and TAF weather

Enter ICAO airport designator
Station Type Date Time Source
KCNM METAR 2018/04/21 10:53 UTC NOAA

KCNM 211053Z AUTO 33015KT 10SM CLR 12/M07 A2995 RMK AO2 SLP098 T01171067


Station Type Date Time Source
KCNM Decoded METAR 2018/04/21 10:53 UTC NOAA

CARLSBAD CAVERN CITY, NM, United States (KCNM) 32-20N 104-16W 985M
Apr 21, 2018 - 06:53 AM EDT / 2018.04.21 1053 UTC
Wind: from the NNW (330 degrees) at 17 MPH (15 KT):0
Visibility: 10 mile(s):0
Sky conditions: clear
Temperature: 53.1 F (11.7 C)
Dew Point: 19.9 F (-6.7 C)
Relative Humidity: 26%
Pressure (altimeter): 29.95 in. Hg (1014 hPa)
ob: KCNM 211053Z AUTO 33015KT 10SM CLR 12/M07 A2995 RMK AO2 SLP098 T01171067
cycle: 11

Station Type Date Time Source
KCNM TAF 2018/04/21 12:28 UTC NOAA

TAF KCNM 211126Z 2112/2212 32018G27KT P6SM FEW080
FM220100 09009KT P6SM SKC


Example: see airport list